CheckWX is a tool to help pilots better visualize weather data.  It is not intended as a substitute for an official pre-flight weather briefing.

00:14:46 UTC

OMRK TAF
Ras Al Khaimah International Airport
Ras Al Khaimah, United Arab Emirates
TAF OMRK 192258Z 2000/2106 10005KT CAVOK BECMG 2006/2008 22010KT BECMG 2009/2011 28015KT BECMG 2015/2017 VRB02KT PROB30 2100/2105 4000 HZ

Jan-20@
00:00 UTC

Jan-20 @ 00:00 UTC

Jan-20@
06:00 UTC

Jan-20 @ 06:00 UTC

TAF OMRK 192258Z 2000/2106 10005KT CAVOK
Wind
  • 100° at 5 KTS
Conditions
No significant weather
Cloud Levels
  • No significant clouds

Jan-20@
06:00 UTC

Jan-20 @ 06:00 UTC

Jan-20@
09:00 UTC

Jan-20 @ 09:00 UTC

BECMG 2006/2008 22010KT

Becoming

Becoming Conditions expected by Mon, Jan 20, 2020 @ 08:00 UTC

Wind
  • 220° at 10 KTS
Conditions
No significant weather
Cloud Levels
  • No significant clouds

Jan-20@
09:00 UTC

Jan-20 @ 09:00 UTC

Jan-20@
15:00 UTC

Jan-20 @ 15:00 UTC

BECMG 2009/2011 28015KT

Becoming

Becoming Conditions expected by Mon, Jan 20, 2020 @ 11:00 UTC

Wind
  • 280° at 15 KTS
Conditions
No significant weather
Cloud Levels
  • No significant clouds

Jan-20@
15:00 UTC

Jan-20 @ 15:00 UTC

Jan-21@
06:00 UTC

Jan-21 @ 06:00 UTC

BECMG 2015/2017 VRB02KT

Becoming

Becoming Conditions expected by Mon, Jan 20, 2020 @ 17:00 UTC

Wind
  • Variable at 2 KTS
Conditions
No significant weather
Cloud Levels
  • No significant clouds

Jan-21@
00:00 UTC

Jan-21 @ 00:00 UTC

Jan-21@
05:00 UTC

Jan-21 @ 05:00 UTC

PROB30 2100/2105 4000 HZ

Probable - 30% Likelihood

Probable - 30% Likelihood during this time.

Conditions
Haze